sensor_id;sensor_type;location;lat;lon;timestamp;temperature;humidity
5358;DHT22;2702;51.014;7.170;2023-03-23T00:01:06;12.00;99.90
5358;DHT22;2702;51.014;7.170;2023-03-23T00:03:32;11.90;99.90
5358;DHT22;2702;51.014;7.170;2023-03-23T00:05:59;11.90;99.90
5358;DHT22;2702;51.014;7.170;2023-03-23T00:08:31;12.00;99.90
5358;DHT22;2702;51.014;7.170;2023-03-23T00:10:57;12.00;99.90
5358;DHT22;2702;51.014;7.170;2023-03-23T00:13:24;11.90;99.90
5358;DHT22;2702;51.014;7.170;2023-03-23T00:15:50;11.90;99.90
5358;DHT22;2702;51.014;7.170;2023-03-23T00:18:18;12.00;99.90
5358;DHT22;2702;51.014;7.170;2023-03-23T00:20:49;12.00;99.90
5358;DHT22;2702;51.014;7.170;2023-03-23T00:23:16;12.00;99.90
5358;DHT22;2702;51.014;7.170;2023-03-23T00:25:50;12.00;99.90
5358;DHT22;2702;51.014;7.170;2023-03-23T00:28:19;11.90;99.90
5358;DHT22;2702;51.014;7.170;2023-03-23T00:31:02;11.90;99.90
5358;DHT22;2702;51.014;7.170;2023-03-23T00:33:30;12.00;99.90
5358;DHT22;2702;51.014;7.170;2023-03-23T00:35:59;12.00;99.90
5358;DHT22;2702;51.014;7.170;2023-03-23T00:38:25;12.00;99.90
5358;DHT22;2702;51.014;7.170;2023-03-23T00:40:51;12.00;99.90
5358;DHT22;2702;51.014;7.170;2023-03-23T00:43:19;12.00;99.90
5358;DHT22;2702;51.014;7.170;2023-03-23T00:45:45;12.00;99.90
5358;DHT22;2702;51.014;7.170;2023-03-23T00:48:22;12.00;99.90
5358;DHT22;2702;51.014;7.170;2023-03-23T00:50:49;12.00;99.90
5358;DHT22;2702;51.014;7.170;2023-03-23T00:53:17;12.00;99.90
5358;DHT22;2702;51.014;7.170;2023-03-23T00:55:47;12.00;99.90
5358;DHT22;2702;51.014;7.170;2023-03-23T00:58:15;12.00;99.90
5358;DHT22;2702;51.014;7.170;2023-03-23T01:00:41;12.00;99.90
5358;DHT22;2702;51.014;7.170;2023-03-23T01:03:09;11.90;99.90
5358;DHT22;2702;51.014;7.170;2023-03-23T01:05:41;11.90;99.90
5358;DHT22;2702;51.014;7.170;2023-03-23T01:08:06;11.90;99.90
5358;DHT22;2702;51.014;7.170;2023-03-23T01:10:33;12.00;99.90
5358;DHT22;2702;51.014;7.170;2023-03-23T01:13:00;12.00;99.90
5358;DHT22;2702;51.014;7.170;2023-03-23T01:15:27;11.90;99.90
5358;DHT22;2702;51.014;7.170;2023-03-23T01:17:54;12.00;99.90
5358;DHT22;2702;51.014;7.170;2023-03-23T01:20:20;11.90;99.90
5358;DHT22;2702;51.014;7.170;2023-03-23T01:22:46;11.90;99.90
5358;DHT22;2702;51.014;7.170;2023-03-23T01:25:13;11.90;99.90
5358;DHT22;2702;51.014;7.170;2023-03-23T01:27:40;11.90;99.90
5358;DHT22;2702;51.014;7.170;2023-03-23T01:30:07;11.90;99.90
5358;DHT22;2702;51.014;7.170;2023-03-23T01:32:34;11.80;99.90
5358;DHT22;2702;51.014;7.170;2023-03-23T01:35:00;11.80;99.90
5358;DHT22;2702;51.014;7.170;2023-03-23T01:37:26;11.80;99.90
5358;DHT22;2702;51.014;7.170;2023-03-23T01:39:56;11.70;99.90
5358;DHT22;2702;51.014;7.170;2023-03-23T01:42:29;11.70;99.90
5358;DHT22;2702;51.014;7.170;2023-03-23T01:45:31;11.70;99.90
5358;DHT22;2702;51.014;7.170;2023-03-23T01:48:14;11.60;99.90
5358;DHT22;2702;51.014;7.170;2023-03-23T01:51:08;11.60;99.90
5358;DHT22;2702;51.014;7.170;2023-03-23T01:53:40;11.60;99.90
5358;DHT22;2702;51.014;7.170;2023-03-23T01:56:09;11.60;99.90
5358;DHT22;2702;51.014;7.170;2023-03-23T01:58:38;11.60;99.90
5358;DHT22;2702;51.014;7.170;2023-03-23T02:01:08;11.60;99.90
5358;DHT22;2702;51.014;7.170;2023-03-23T02:03:39;11.50;99.90
5358;DHT22;2702;51.014;7.170;2023-03-23T02:06:07;11.50;99.90
5358;DHT22;2702;51.014;7.170;2023-03-23T02:08:33;11.50;99.90
5358;DHT22;2702;51.014;7.170;2023-03-23T02:10:59;11.40;99.90
5358;DHT22;2702;51.014;7.170;2023-03-23T02:13:26;11.40;99.90
5358;DHT22;2702;51.014;7.170;2023-03-23T02:27:02;11.20;99.90
5358;DHT22;2702;51.014;7.170;2023-03-23T02:32:16;11.20;99.90
5358;DHT22;2702;51.014;7.170;2023-03-23T02:34:53;11.10;99.90
5358;DHT22;2702;51.014;7.170;2023-03-23T02:37:43;11.10;99.90
5358;DHT22;2702;51.014;7.170;2023-03-23T02:40:24;11.10;99.90
5358;DHT22;2702;51.014;7.170;2023-03-23T02:42:54;10.90;99.90
5358;DHT22;2702;51.014;7.170;2023-03-23T02:45:22;10.90;99.90
5358;DHT22;2702;51.014;7.170;2023-03-23T02:47:52;10.90;99.90
5358;DHT22;2702;51.014;7.170;2023-03-23T02:50:22;10.80;99.90
5358;DHT22;2702;51.014;7.170;2023-03-23T02:52:50;10.80;99.90
5358;DHT22;2702;51.014;7.170;2023-03-23T02:55:19;10.80;99.90
5358;DHT22;2702;51.014;7.170;2023-03-23T02:57:51;10.80;99.90
5358;DHT22;2702;51.014;7.170;2023-03-23T03:00:18;10.80;99.90
5358;DHT22;2702;51.014;7.170;2023-03-23T03:02:50;10.80;99.90
5358;DHT22;2702;51.014;7.170;2023-03-23T03:11:16;10.70;99.90
5358;DHT22;2702;51.014;7.170;2023-03-23T03:13:50;10.70;99.90
5358;DHT22;2702;51.014;7.170;2023-03-23T03:16:34;10.60;99.90
5358;DHT22;2702;51.014;7.170;2023-03-23T03:19:22;10.60;99.90
5358;DHT22;2702;51.014;7.170;2023-03-23T03:21:52;10.60;99.90
5358;DHT22;2702;51.014;7.170;2023-03-23T03:24:21;10.60;99.90
5358;DHT22;2702;51.014;7.170;2023-03-23T03:26:51;10.60;99.90
5358;DHT22;2702;51.014;7.170;2023-03-23T03:29:21;10.60;99.90
5358;DHT22;2702;51.014;7.170;2023-03-23T03:31:50;10.60;99.90
5358;DHT22;2702;51.014;7.170;2023-03-23T03:34:21;10.60;99.90
5358;DHT22;2702;51.014;7.170;2023-03-23T03:36:49;10.60;99.90
5358;DHT22;2702;51.014;7.170;2023-03-23T03:39:18;10.70;99.90
5358;DHT22;2702;51.014;7.170;2023-03-23T03:41:45;10.70;99.90
5358;DHT22;2702;51.014;7.170;2023-03-23T03:44:11;10.70;99.90
5358;DHT22;2702;51.014;7.170;2023-03-23T03:46:38;10.70;99.90
5358;DHT22;2702;51.014;7.170;2023-03-23T03:49:06;10.70;99.90
5358;DHT22;2702;51.014;7.170;2023-03-23T03:51:33;10.70;99.90
5358;DHT22;2702;51.014;7.170;2023-03-23T03:53:59;10.60;99.90
5358;DHT22;2702;51.014;7.170;2023-03-23T03:56:25;10.60;99.90
5358;DHT22;2702;51.014;7.170;2023-03-23T03:58:52;10.60;99.90
5358;DHT22;2702;51.014;7.170;2023-03-23T04:01:20;10.70;99.90
5358;DHT22;2702;51.014;7.170;2023-03-23T04:03:50;10.70;99.90
5358;DHT22;2702;51.014;7.170;2023-03-23T04:06:17;10.70;99.90
5358;DHT22;2702;51.014;7.170;2023-03-23T04:08:44;10.70;99.90
5358;DHT22;2702;51.014;7.170;2023-03-23T04:11:13;10.60;99.90
5358;DHT22;2702;51.014;7.170;2023-03-23T04:13:40;10.70;99.90
5358;DHT22;2702;51.014;7.170;2023-03-23T04:16:06;10.60;99.90
5358;DHT22;2702;51.014;7.170;2023-03-23T04:18:33;10.70;99.90
5358;DHT22;2702;51.014;7.170;2023-03-23T04:21:00;10.60;99.90
5358;DHT22;2702;51.014;7.170;2023-03-23T04:23:29;10.60;99.90
5358;DHT22;2702;51.014;7.170;2023-03-23T04:25:56;10.60;99.90
5358;DHT22;2702;51.014;7.170;2023-03-23T04:28:27;10.50;99.90
5358;DHT22;2702;51.014;7.170;2023-03-23T04:30:53;10.60;99.90
5358;DHT22;2702;51.014;7.170;2023-03-23T04:33:24;10.60;99.90
5358;DHT22;2702;51.014;7.170;2023-03-23T04:35:53;10.60;99.90
5358;DHT22;2702;51.014;7.170;2023-03-23T04:38:21;10.60;99.90
5358;DHT22;2702;51.014;7.170;2023-03-23T04:40:50;10.70;99.90
5358;DHT22;2702;51.014;7.170;2023-03-23T04:43:21;10.70;99.90
5358;DHT22;2702;51.014;7.170;2023-03-23T04:45:53;10.60;99.90
5358;DHT22;2702;51.014;7.170;2023-03-23T04:48:23;10.70;99.90
5358;DHT22;2702;51.014;7.170;2023-03-23T04:50:49;10.70;99.90
5358;DHT22;2702;51.014;7.170;2023-03-23T04:53:16;10.70;99.90
5358;DHT22;2702;51.014;7.170;2023-03-23T04:55:44;10.70;99.90
5358;DHT22;2702;51.014;7.170;2023-03-23T04:58:11;10.70;99.90
5358;DHT22;2702;51.014;7.170;2023-03-23T05:00:40;10.70;99.90
5358;DHT22;2702;51.014;7.170;2023-03-23T05:03:10;10.70;99.90
5358;DHT22;2702;51.014;7.170;2023-03-23T05:05:37;10.70;99.90
5358;DHT22;2702;51.014;7.170;2023-03-23T05:08:03;10.60;99.90
5358;DHT22;2702;51.014;7.170;2023-03-23T05:10:30;10.70;99.90
5358;DHT22;2702;51.014;7.170;2023-03-23T05:12:56;10.70;99.90
5358;DHT22;2702;51.014;7.170;2023-03-23T05:15:22;10.70;99.90
5358;DHT22;2702;51.014;7.170;2023-03-23T05:17:51;10.70;99.90
5358;DHT22;2702;51.014;7.170;2023-03-23T05:20:17;10.70;99.90
5358;DHT22;2702;51.014;7.170;2023-03-23T05:22:47;10.70;99.90
5358;DHT22;2702;51.014;7.170;2023-03-23T05:25:16;10.70;99.90
5358;DHT22;2702;51.014;7.170;2023-03-23T05:27:46;10.70;99.90
5358;DHT22;2702;51.014;7.170;2023-03-23T05:30:19;10.70;99.90
5358;DHT22;2702;51.014;7.170;2023-03-23T05:32:45;10.70;99.90
5358;DHT22;2702;51.014;7.170;2023-03-23T05:35:17;10.70;99.90
5358;DHT22;2702;51.014;7.170;2023-03-23T05:37:43;10.70;99.90
5358;DHT22;2702;51.014;7.170;2023-03-23T05:40:11;10.70;99.90
5358;DHT22;2702;51.014;7.170;2023-03-23T05:42:38;10.70;99.90
5358;DHT22;2702;51.014;7.170;2023-03-23T05:45:08;10.80;99.90
5358;DHT22;2702;51.014;7.170;2023-03-23T05:47:37;10.80;99.90
5358;DHT22;2702;51.014;7.170;2023-03-23T05:50:03;10.80;99.90
5358;DHT22;2702;51.014;7.170;2023-03-23T05:52:30;10.80;99.90
5358;DHT22;2702;51.014;7.170;2023-03-23T05:54:58;10.80;99.90
5358;DHT22;2702;51.014;7.170;2023-03-23T05:57:24;10.90;99.90
5358;DHT22;2702;51.014;7.170;2023-03-23T05:59:50;10.90;99.90
5358;DHT22;2702;51.014;7.170;2023-03-23T06:02:16;10.90;99.90
5358;DHT22;2702;51.014;7.170;2023-03-23T06:04:42;10.80;99.90
5358;DHT22;2702;51.014;7.170;2023-03-23T06:07:08;10.90;99.90
5358;DHT22;2702;51.014;7.170;2023-03-23T06:09:38;10.90;99.90
5358;DHT22;2702;51.014;7.170;2023-03-23T06:12:05;10.90;99.90
5358;DHT22;2702;51.014;7.170;2023-03-23T06:14:30;11.00;99.90
5358;DHT22;2702;51.014;7.170;2023-03-23T06:16:57;10.90;99.90
5358;DHT22;2702;51.014;7.170;2023-03-23T06:19:23;11.00;99.90
5358;DHT22;2702;51.014;7.170;2023-03-23T06:21:49;11.00;99.90
5358;DHT22;2702;51.014;7.170;2023-03-23T06:24:15;11.00;99.90
5358;DHT22;2702;51.014;7.170;2023-03-23T06:26:41;11.10;99.90
5358;DHT22;2702;51.014;7.170;2023-03-23T06:29:07;11.20;99.90
5358;DHT22;2702;51.014;7.170;2023-03-23T06:31:50;11.20;99.90
5358;DHT22;2702;51.014;7.170;2023-03-23T06:34:18;11.20;99.90
5358;DHT22;2702;51.014;7.170;2023-03-23T06:36:44;11.30;99.90
5358;DHT22;2702;51.014;7.170;2023-03-23T06:39:11;11.30;99.90
5358;DHT22;2702;51.014;7.170;2023-03-23T06:41:38;11.30;99.90
5358;DHT22;2702;51.014;7.170;2023-03-23T06:44:03;11.30;99.90
5358;DHT22;2702;51.014;7.170;2023-03-23T06:46:29;11.30;99.90
5358;DHT22;2702;51.014;7.170;2023-03-23T06:48:55;11.30;99.90
5358;DHT22;2702;51.014;7.170;2023-03-23T06:51:21;11.40;99.90
5358;DHT22;2702;51.014;7.170;2023-03-23T06:53:47;11.40;99.90
5358;DHT22;2702;51.014;7.170;2023-03-23T06:56:13;11.40;99.90
5358;DHT22;2702;51.014;7.170;2023-03-23T06:58:39;11.40;99.90
5358;DHT22;2702;51.014;7.170;2023-03-23T07:01:08;11.50;99.90
5358;DHT22;2702;51.014;7.170;2023-03-23T07:03:35;11.50;99.90
5358;DHT22;2702;51.014;7.170;2023-03-23T07:06:02;11.60;99.90
5358;DHT22;2702;51.014;7.170;2023-03-23T07:08:29;11.60;99.90
5358;DHT22;2702;51.014;7.170;2023-03-23T07:10:56;11.60;99.90
5358;DHT22;2702;51.014;7.170;2023-03-23T07:13:22;11.60;99.90
5358;DHT22;2702;51.014;7.170;2023-03-23T07:15:49;11.60;99.90
5358;DHT22;2702;51.014;7.170;2023-03-23T07:18:16;11.60;99.90
5358;DHT22;2702;51.014;7.170;2023-03-23T07:20:42;11.60;99.90
5358;DHT22;2702;51.014;7.170;2023-03-23T07:23:08;11.60;99.90
5358;DHT22;2702;51.014;7.170;2023-03-23T07:25:35;11.60;99.90
5358;DHT22;2702;51.014;7.170;2023-03-23T07:28:03;11.60;99.90
5358;DHT22;2702;51.014;7.170;2023-03-23T07:30:29;11.60;99.90
5358;DHT22;2702;51.014;7.170;2023-03-23T07:32:57;11.60;99.90
5358;DHT22;2702;51.014;7.170;2023-03-23T07:35:24;11.70;99.90
5358;DHT22;2702;51.014;7.170;2023-03-23T07:37:51;11.80;99.90
5358;DHT22;2702;51.014;7.170;2023-03-23T07:40:18;11.80;99.90
5358;DHT22;2702;51.014;7.170;2023-03-23T07:42:46;11.80;99.90
5358;DHT22;2702;51.014;7.170;2023-03-23T07:45:15;11.80;99.90
5358;DHT22;2702;51.014;7.170;2023-03-23T07:47:41;11.90;99.90
5358;DHT22;2702;51.014;7.170;2023-03-23T07:50:08;11.90;99.90
5358;DHT22;2702;51.014;7.170;2023-03-23T07:52:35;11.90;99.90
5358;DHT22;2702;51.014;7.170;2023-03-23T07:55:03;11.90;99.90
5358;DHT22;2702;51.014;7.170;2023-03-23T07:57:30;11.90;99.90
5358;DHT22;2702;51.014;7.170;2023-03-23T07:59:57;11.90;99.90
5358;DHT22;2702;51.014;7.170;2023-03-23T08:02:23;11.90;99.90
5358;DHT22;2702;51.014;7.170;2023-03-23T08:04:50;11.90;99.90
5358;DHT22;2702;51.014;7.170;2023-03-23T08:07:17;12.00;99.90
5358;DHT22;2702;51.014;7.170;2023-03-23T08:09:45;11.90;99.90
5358;DHT22;2702;51.014;7.170;2023-03-23T08:12:11;12.00;99.90
5358;DHT22;2702;51.014;7.170;2023-03-23T08:14:37;12.00;99.90
5358;DHT22;2702;51.014;7.170;2023-03-23T08:17:04;12.10;99.90
5358;DHT22;2702;51.014;7.170;2023-03-23T08:19:30;12.10;99.90
5358;DHT22;2702;51.014;7.170;2023-03-23T08:21:56;12.20;99.90
5358;DHT22;2702;51.014;7.170;2023-03-23T08:24:22;12.20;99.90
5358;DHT22;2702;51.014;7.170;2023-03-23T08:26:49;12.20;99.90
5358;DHT22;2702;51.014;7.170;2023-03-23T08:29:14;12.20;99.90
5358;DHT22;2702;51.014;7.170;2023-03-23T08:31:41;12.20;99.90
5358;DHT22;2702;51.014;7.170;2023-03-23T08:34:07;12.30;99.90
5358;DHT22;2702;51.014;7.170;2023-03-23T08:36:34;12.30;99.90
5358;DHT22;2702;51.014;7.170;2023-03-23T08:39:00;12.30;99.90
5358;DHT22;2702;51.014;7.170;2023-03-23T08:41:26;12.40;99.90
5358;DHT22;2702;51.014;7.170;2023-03-23T08:43:52;12.40;99.90
5358;DHT22;2702;51.014;7.170;2023-03-23T08:46:19;12.50;99.90
5358;DHT22;2702;51.014;7.170;2023-03-23T08:48:45;12.50;99.90
5358;DHT22;2702;51.014;7.170;2023-03-23T08:51:12;12.60;99.90
5358;DHT22;2702;51.014;7.170;2023-03-23T08:53:38;12.60;99.90
5358;DHT22;2702;51.014;7.170;2023-03-23T08:56:06;12.60;99.90
5358;DHT22;2702;51.014;7.170;2023-03-23T08:58:34;12.70;99.90
5358;DHT22;2702;51.014;7.170;2023-03-23T09:01:01;12.70;99.90
5358;DHT22;2702;51.014;7.170;2023-03-23T09:03:27;12.80;99.90
5358;DHT22;2702;51.014;7.170;2023-03-23T09:06:01;12.80;99.90
5358;DHT22;2702;51.014;7.170;2023-03-23T09:08:28;12.80;99.90
5358;DHT22;2702;51.014;7.170;2023-03-23T09:11:08;12.90;99.90
5358;DHT22;2702;51.014;7.170;2023-03-23T09:13:38;12.80;99.90
5358;DHT22;2702;51.014;7.170;2023-03-23T09:16:06;12.70;99.90
5358;DHT22;2702;51.014;7.170;2023-03-23T09:18:33;12.70;99.90
5358;DHT22;2702;51.014;7.170;2023-03-23T09:21:01;12.70;99.90
5358;DHT22;2702;51.014;7.170;2023-03-23T09:23:29;12.70;99.90
5358;DHT22;2702;51.014;7.170;2023-03-23T09:25:55;12.70;99.90
5358;DHT22;2702;51.014;7.170;2023-03-23T09:28:21;12.70;99.90
5358;DHT22;2702;51.014;7.170;2023-03-23T09:30:47;12.80;99.90
5358;DHT22;2702;51.014;7.170;2023-03-23T09:33:15;12.70;99.90
5358;DHT22;2702;51.014;7.170;2023-03-23T09:35:41;12.70;99.90
5358;DHT22;2702;51.014;7.170;2023-03-23T09:38:09;12.80;99.90
5358;DHT22;2702;51.014;7.170;2023-03-23T09:41:00;12.80;99.90
5358;DHT22;2702;51.014;7.170;2023-03-23T09:44:02;12.90;99.90
5358;DHT22;2702;51.014;7.170;2023-03-23T09:52:16;13.10;99.90
5358;DHT22;2702;51.014;7.170;2023-03-23T09:54:50;13.00;99.90
5358;DHT22;2702;51.014;7.170;2023-03-23T09:57:39;12.90;99.90
5358;DHT22;2702;51.014;7.170;2023-03-23T10:00:24;12.90;99.90
5358;DHT22;2702;51.014;7.170;2023-03-23T10:02:57;12.80;99.90
5358;DHT22;2702;51.014;7.170;2023-03-23T10:06:01;12.90;99.90
5358;DHT22;2702;51.014;7.170;2023-03-23T10:08:30;12.90;99.90
5358;DHT22;2702;51.014;7.170;2023-03-23T10:11:50;12.80;99.90
5358;DHT22;2702;51.014;7.170;2023-03-23T10:13:57;12.80;99.90
5358;DHT22;2702;51.014;7.170;2023-03-23T10:16:30;12.80;99.90
5358;DHT22;2702;51.014;7.170;2023-03-23T10:21:56;12.70;99.90
5358;DHT22;2702;51.014;7.170;2023-03-23T10:24:36;12.70;99.90
5358;DHT22;2702;51.014;7.170;2023-03-23T10:30:03;12.80;99.90
5358;DHT22;2702;51.014;7.170;2023-03-23T10:32:53;12.80;99.90
5358;DHT22;2702;51.014;7.170;2023-03-23T10:35:33;12.80;99.90
5358;DHT22;2702;51.014;7.170;2023-03-23T10:38:04;12.80;99.90
5358;DHT22;2702;51.014;7.170;2023-03-23T10:40:31;12.80;99.90
5358;DHT22;2702;51.014;7.170;2023-03-23T10:43:00;12.90;99.90
5358;DHT22;2702;51.014;7.170;2023-03-23T10:45:29;12.90;99.90
5358;DHT22;2702;51.014;7.170;2023-03-23T10:50:34;13.10;99.90
5358;DHT22;2702;51.014;7.170;2023-03-23T10:53:00;13.10;99.90
5358;DHT22;2702;51.014;7.170;2023-03-23T10:55:40;13.10;99.90
5358;DHT22;2702;51.014;7.170;2023-03-23T10:58:09;13.00;99.90
5358;DHT22;2702;51.014;7.170;2023-03-23T11:00:45;13.00;99.90
5358;DHT22;2702;51.014;7.170;2023-03-23T11:05:53;12.90;99.90
5358;DHT22;2702;51.014;7.170;2023-03-23T11:08:21;12.90;99.90
5358;DHT22;2702;51.014;7.170;2023-03-23T11:10:59;12.90;99.90
5358;DHT22;2702;51.014;7.170;2023-03-23T11:13:32;12.80;99.90
5358;DHT22;2702;51.014;7.170;2023-03-23T11:16:00;12.80;99.90
5358;DHT22;2702;51.014;7.170;2023-03-23T11:18:36;12.80;99.90
5358;DHT22;2702;51.014;7.170;2023-03-23T11:21:03;12.80;99.90
5358;DHT22;2702;51.014;7.170;2023-03-23T11:23:36;12.80;99.90
5358;DHT22;2702;51.014;7.170;2023-03-23T11:26:27;12.80;99.90
5358;DHT22;2702;51.014;7.170;2023-03-23T11:28:58;12.90;99.90
5358;DHT22;2702;51.014;7.170;2023-03-23T11:34:29;12.90;99.90
5358;DHT22;2702;51.014;7.170;2023-03-23T11:39:28;12.90;99.90
5358;DHT22;2702;51.014;7.170;2023-03-23T11:41:58;12.90;99.90
5358;DHT22;2702;51.014;7.170;2023-03-23T11:44:32;12.90;99.90
5358;DHT22;2702;51.014;7.170;2023-03-23T11:50:08;13.00;99.90
5358;DHT22;2702;51.014;7.170;2023-03-23T11:55:49;13.00;99.90
5358;DHT22;2702;51.014;7.170;2023-03-23T11:58:19;13.10;99.90
5358;DHT22;2702;51.014;7.170;2023-03-23T12:00:57;13.10;99.90
5358;DHT22;2702;51.014;7.170;2023-03-23T12:06:32;13.10;99.90
5358;DHT22;2702;51.014;7.170;2023-03-23T12:09:27;12.90;99.90
5358;DHT22;2702;51.014;7.170;2023-03-23T12:14:35;12.60;99.90
5358;DHT22;2702;51.014;7.170;2023-03-23T12:23:11;12.40;99.90
5358;DHT22;2702;51.014;7.170;2023-03-23T12:29:12;12.50;99.90
5358;DHT22;2702;51.014;7.170;2023-03-23T12:37:28;12.40;99.90
5358;DHT22;2702;51.014;7.170;2023-03-23T12:45:55;12.60;99.90
5358;DHT22;2702;51.014;7.170;2023-03-23T12:48:29;12.80;99.90
5358;DHT22;2702;51.014;7.170;2023-03-23T12:51:24;12.90;99.90
5358;DHT22;2702;51.014;7.170;2023-03-23T12:54:07;13.00;99.90
5358;DHT22;2702;51.014;7.170;2023-03-23T12:56:58;13.00;99.90
5358;DHT22;2702;51.014;7.170;2023-03-23T12:59:30;13.10;99.90
5358;DHT22;2702;51.014;7.170;2023-03-23T13:02:09;13.10;99.90
5358;DHT22;2702;51.014;7.170;2023-03-23T13:04:40;13.20;99.90
5358;DHT22;2702;51.014;7.170;2023-03-23T13:07:14;13.20;99.90
5358;DHT22;2702;51.014;7.170;2023-03-23T13:12:38;13.10;99.90
5358;DHT22;2702;51.014;7.170;2023-03-23T13:15:51;13.00;99.90
5358;DHT22;2702;51.014;7.170;2023-03-23T13:18:19;13.00;99.90
5358;DHT22;2702;51.014;7.170;2023-03-23T13:21:24;13.00;99.90
5358;DHT22;2702;51.014;7.170;2023-03-23T13:26:28;13.10;99.90
5358;DHT22;2702;51.014;7.170;2023-03-23T13:29:08;13.20;99.90
5358;DHT22;2702;51.014;7.170;2023-03-23T13:31:38;13.30;99.90
5358;DHT22;2702;51.014;7.170;2023-03-23T13:34:25;13.20;99.90
5358;DHT22;2702;51.014;7.170;2023-03-23T13:39:34;13.20;99.90
5358;DHT22;2702;51.014;7.170;2023-03-23T13:44:44;13.30;99.90
5358;DHT22;2702;51.014;7.170;2023-03-23T13:49:59;13.40;99.90
5358;DHT22;2702;51.014;7.170;2023-03-23T14:05:39;12.90;99.90
5358;DHT22;2702;51.014;7.170;2023-03-23T14:10:42;12.90;99.90
5358;DHT22;2702;51.014;7.170;2023-03-23T14:13:25;12.90;99.90
5358;DHT22;2702;51.014;7.170;2023-03-23T14:16:15;12.90;99.90
5358;DHT22;2702;51.014;7.170;2023-03-23T14:18:56;12.90;99.90
5358;DHT22;2702;51.014;7.170;2023-03-23T14:21:48;13.00;99.90
5358;DHT22;2702;51.014;7.170;2023-03-23T14:24:25;13.00;99.90
5358;DHT22;2702;51.014;7.170;2023-03-23T14:26:53;13.10;99.90
5358;DHT22;2702;51.014;7.170;2023-03-23T14:29:20;13.20;99.90
5358;DHT22;2702;51.014;7.170;2023-03-23T14:31:53;13.30;99.90
5358;DHT22;2702;51.014;7.170;2023-03-23T14:34:21;13.30;99.90
5358;DHT22;2702;51.014;7.170;2023-03-23T14:36:48;13.40;99.90
5358;DHT22;2702;51.014;7.170;2023-03-23T14:39:28;13.40;99.90
5358;DHT22;2702;51.014;7.170;2023-03-23T14:42:12;13.50;99.90
5358;DHT22;2702;51.014;7.170;2023-03-23T14:44:41;13.60;99.90
5358;DHT22;2702;51.014;7.170;2023-03-23T14:47:25;13.70;99.90
5358;DHT22;2702;51.014;7.170;2023-03-23T14:49:58;13.80;99.90
5358;DHT22;2702;51.014;7.170;2023-03-23T14:52:28;13.80;99.90
5358;DHT22;2702;51.014;7.170;2023-03-23T14:54:54;13.70;99.90
5358;DHT22;2702;51.014;7.170;2023-03-23T14:59:51;13.80;99.90
5358;DHT22;2702;51.014;7.170;2023-03-23T15:04:45;13.60;99.90
5358;DHT22;2702;51.014;7.170;2023-03-23T15:07:14;13.60;99.90
5358;DHT22;2702;51.014;7.170;2023-03-23T15:09:43;13.60;99.90
5358;DHT22;2702;51.014;7.170;2023-03-23T15:12:22;13.60;99.90
5358;DHT22;2702;51.014;7.170;2023-03-23T15:14:52;13.50;99.90
5358;DHT22;2702;51.014;7.170;2023-03-23T15:17:27;13.50;99.90
5358;DHT22;2702;51.014;7.170;2023-03-23T15:19:55;13.40;99.90
5358;DHT22;2702;51.014;7.170;2023-03-23T15:22:31;13.30;99.90
5358;DHT22;2702;51.014;7.170;2023-03-23T15:25:20;13.30;99.90
5358;DHT22;2702;51.014;7.170;2023-03-23T15:27:55;13.30;99.90
5358;DHT22;2702;51.014;7.170;2023-03-23T15:33:08;13.20;99.90
5358;DHT22;2702;51.014;7.170;2023-03-23T15:35:38;13.20;99.90
5358;DHT22;2702;51.014;7.170;2023-03-23T15:38:06;13.20;99.90
5358;DHT22;2702;51.014;7.170;2023-03-23T15:40:38;13.30;99.90
5358;DHT22;2702;51.014;7.170;2023-03-23T15:43:18;13.40;99.90
5358;DHT22;2702;51.014;7.170;2023-03-23T15:45:59;13.40;99.90
5358;DHT22;2702;51.014;7.170;2023-03-23T15:48:50;13.50;99.90
5358;DHT22;2702;51.014;7.170;2023-03-23T15:51:17;13.50;99.90
5358;DHT22;2702;51.014;7.170;2023-03-23T15:53:45;13.50;99.90
5358;DHT22;2702;51.014;7.170;2023-03-23T15:56:13;13.50;99.90
5358;DHT22;2702;51.014;7.170;2023-03-23T15:58:40;13.50;99.90
5358;DHT22;2702;51.014;7.170;2023-03-23T16:01:20;13.50;99.90
5358;DHT22;2702;51.014;7.170;2023-03-23T16:06:22;13.70;99.90
5358;DHT22;2702;51.014;7.170;2023-03-23T16:08:49;13.70;99.90
5358;DHT22;2702;51.014;7.170;2023-03-23T16:11:17;13.80;99.90
5358;DHT22;2702;51.014;7.170;2023-03-23T16:13:44;13.80;99.90
5358;DHT22;2702;51.014;7.170;2023-03-23T16:16:36;13.80;99.90
5358;DHT22;2702;51.014;7.170;2023-03-23T16:19:03;13.90;99.90
5358;DHT22;2702;51.014;7.170;2023-03-23T16:21:29;13.90;99.90
5358;DHT22;2702;51.014;7.170;2023-03-23T16:23:56;13.90;99.90
5358;DHT22;2702;51.014;7.170;2023-03-23T16:26:22;13.80;99.90
5358;DHT22;2702;51.014;7.170;2023-03-23T16:28:48;13.90;99.90
5358;DHT22;2702;51.014;7.170;2023-03-23T16:31:14;13.90;99.90
5358;DHT22;2702;51.014;7.170;2023-03-23T16:33:40;13.80;99.90
5358;DHT22;2702;51.014;7.170;2023-03-23T16:36:06;13.70;99.90
5358;DHT22;2702;51.014;7.170;2023-03-23T16:38:32;13.70;99.90
5358;DHT22;2702;51.014;7.170;2023-03-23T16:40:58;13.60;99.90
5358;DHT22;2702;51.014;7.170;2023-03-23T16:43:24;13.60;99.90
5358;DHT22;2702;51.014;7.170;2023-03-23T16:45:54;13.60;99.90
5358;DHT22;2702;51.014;7.170;2023-03-23T16:48:20;13.60;99.90
5358;DHT22;2702;51.014;7.170;2023-03-23T16:50:47;13.50;99.90
5358;DHT22;2702;51.014;7.170;2023-03-23T16:53:13;13.60;99.90
5358;DHT22;2702;51.014;7.170;2023-03-23T16:55:39;13.70;99.90
5358;DHT22;2702;51.014;7.170;2023-03-23T16:58:06;13.60;99.90
5358;DHT22;2702;51.014;7.170;2023-03-23T17:00:32;13.60;99.90
5358;DHT22;2702;51.014;7.170;2023-03-23T17:02:58;13.60;99.90
5358;DHT22;2702;51.014;7.170;2023-03-23T17:05:27;13.60;99.90
5358;DHT22;2702;51.014;7.170;2023-03-23T17:07:54;13.50;99.90
5358;DHT22;2702;51.014;7.170;2023-03-23T17:10:22;13.40;99.90
5358;DHT22;2702;51.014;7.170;2023-03-23T17:12:48;13.40;99.90
5358;DHT22;2702;51.014;7.170;2023-03-23T17:15:14;13.40;99.90
5358;DHT22;2702;51.014;7.170;2023-03-23T17:17:40;13.30;99.90
5358;DHT22;2702;51.014;7.170;2023-03-23T17:20:06;13.30;99.90
5358;DHT22;2702;51.014;7.170;2023-03-23T17:22:35;13.20;99.90
5358;DHT22;2702;51.014;7.170;2023-03-23T17:25:01;13.30;99.90
5358;DHT22;2702;51.014;7.170;2023-03-23T17:27:27;13.30;99.90
5358;DHT22;2702;51.014;7.170;2023-03-23T17:29:54;13.20;99.90
5358;DHT22;2702;51.014;7.170;2023-03-23T17:32:21;13.20;99.90
5358;DHT22;2702;51.014;7.170;2023-03-23T17:34:49;13.20;99.90
5358;DHT22;2702;51.014;7.170;2023-03-23T17:37:16;13.20;99.90
5358;DHT22;2702;51.014;7.170;2023-03-23T17:39:42;13.10;99.90
5358;DHT22;2702;51.014;7.170;2023-03-23T17:42:08;13.10;99.90
5358;DHT22;2702;51.014;7.170;2023-03-23T17:44:33;13.10;99.90
5358;DHT22;2702;51.014;7.170;2023-03-23T17:46:59;13.00;99.90
5358;DHT22;2702;51.014;7.170;2023-03-23T17:49:26;13.00;99.90
5358;DHT22;2702;51.014;7.170;2023-03-23T17:51:56;12.90;99.90
5358;DHT22;2702;51.014;7.170;2023-03-23T17:54:23;12.90;99.90
5358;DHT22;2702;51.014;7.170;2023-03-23T17:56:51;12.80;99.90
5358;DHT22;2702;51.014;7.170;2023-03-23T17:59:17;12.90;99.90
5358;DHT22;2702;51.014;7.170;2023-03-23T18:01:43;12.90;99.90
5358;DHT22;2702;51.014;7.170;2023-03-23T18:04:09;12.80;99.90
5358;DHT22;2702;51.014;7.170;2023-03-23T18:06:35;12.80;99.90
5358;DHT22;2702;51.014;7.170;2023-03-23T18:09:01;12.80;99.90
5358;DHT22;2702;51.014;7.170;2023-03-23T18:11:28;12.70;99.90
5358;DHT22;2702;51.014;7.170;2023-03-23T18:13:54;12.70;99.90
5358;DHT22;2702;51.014;7.170;2023-03-23T18:16:21;12.60;99.90